createdAt,value
2019-05-22T10:37:46.415Z,97987.11
2019-05-22T10:42:47.269Z,97997.64
2019-05-22T10:47:48.814Z,97997.08
2019-05-22T10:52:54.086Z,98006.84
2019-05-22T10:57:53.608Z,98011.10
2019-05-22T11:02:55.288Z,98011.39
2019-05-22T11:07:56.372Z,98021.68
2019-05-22T11:12:57.753Z,98026.88
2019-05-22T11:17:58.952Z,98027.33
2019-05-22T11:23:00.524Z,98029.89
2019-05-22T11:28:01.536Z,98038.62
2019-05-22T11:33:02.993Z,98041.39
2019-05-22T11:38:04.172Z,98037.62
2019-05-22T11:43:06.154Z,98041.06
2019-05-22T11:48:07.651Z,98051.89
2019-05-22T11:53:08.646Z,98045.53
2019-05-22T11:58:09.926Z,98047.90
2019-05-22T12:03:12.198Z,98047.45
2019-05-22T12:08:16.695Z,98048.81
2019-05-22T12:13:17.769Z,98054.99
2019-05-22T12:18:19.468Z,98063.13
2019-05-22T12:23:20.440Z,98062.45
2019-05-22T12:28:21.424Z,98063.05
2019-05-22T12:33:22.779Z,98065.53
2019-05-22T12:38:26.758Z,98059.64
2019-05-22T12:43:27.963Z,98074.95
2019-05-22T12:48:29.240Z,98067.64
2019-05-22T12:53:30.724Z,98076.56
2019-05-22T12:58:33.020Z,98073.52
2019-05-22T13:03:34.911Z,98076.05
2019-05-22T13:08:36.569Z,98072.79
2019-05-22T13:13:41.579Z,98079.20
2019-05-22T13:18:43.857Z,98074.16
2019-05-22T13:23:44.949Z,98064.87
2019-05-22T13:28:46.722Z,98066.22
2019-05-22T13:33:48.494Z,98064.95
2019-05-22T13:38:49.516Z,98060.13
2019-05-22T13:43:50.597Z,98057.29
2019-05-22T13:48:54.233Z,98057.62
2019-05-22T13:53:55.504Z,98057.33
2019-05-22T13:58:56.602Z,98057.62
2019-05-22T14:03:57.478Z,98063.86
2019-05-22T14:08:59.716Z,98073.72
2019-05-22T14:14:01.121Z,98078.83
2019-05-22T14:19:02.787Z,98081.08
2019-05-22T14:24:04.090Z,98086.88
2019-05-22T14:29:05.344Z,98086.80
2019-05-22T14:34:06.521Z,98091.88
2019-05-22T14:39:09.702Z,98085.20
2019-05-22T14:44:11.375Z,98089.74
2019-05-22T14:49:27.026Z,98081.33
2019-05-22T14:54:28.903Z,98090.06
2019-05-22T14:59:31.190Z,98078.59
2019-05-22T15:04:32.372Z,98083.32
2019-05-22T15:09:34.527Z,98090.36
2019-05-22T15:14:35.504Z,98086.14
2019-05-22T15:19:36.782Z,98093.69
2019-05-22T15:24:37.960Z,98085.47
2019-05-22T15:29:39.258Z,98093.48
2019-05-22T15:34:40.628Z,98087.87
2019-05-22T15:39:42.800Z,98084.50
2019-05-22T15:44:44.283Z,98092.92
2019-05-22T15:49:45.552Z,98095.92
2019-05-22T15:54:46.723Z,98082.53
2019-05-22T15:59:47.625Z,98081.77
2019-05-22T16:04:49.418Z,98095.65
2019-05-22T16:09:50.595Z,98097.28
2019-05-22T16:14:51.561Z,98105.00
2019-05-22T16:19:52.941Z,98105.94
2019-05-22T16:24:53.927Z,98117.03
2019-05-22T16:29:54.815Z,98103.88
2019-05-22T16:34:56.915Z,98108.52
2019-05-22T16:39:58.464Z,98101.40
2019-05-22T16:45:00.235Z,98103.72
2019-05-22T16:50:01.431Z,98111.13
2019-05-22T16:55:06.396Z,98111.13
2019-05-22T17:00:09.791Z,98115.47
2019-05-22T17:05:12.187Z,98113.83
2019-05-22T17:10:14.369Z,98119.73
2019-05-22T17:15:18.820Z,98114.84
2019-05-22T17:20:22.905Z,98121.21
2019-05-22T17:25:24.202Z,98130.02
2019-05-22T17:30:25.885Z,98128.84
2019-05-22T17:35:27.572Z,98143.84
2019-05-22T17:40:30.036Z,98127.97
2019-05-22T17:45:31.128Z,98135.05
2019-05-22T17:50:32.990Z,98134.41
2019-05-22T17:55:34.664Z,98131.27
2019-05-22T18:00:40.223Z,98130.19
2019-05-22T18:05:41.884Z,98135.89
2019-05-22T18:10:47.790Z,98134.64
2019-05-22T18:15:48.751Z,98147.60
2019-05-22T18:20:50.620Z,98154.05
2019-05-22T18:25:52.013Z,98159.03
2019-05-22T18:30:53.506Z,98167.55
2019-05-22T18:35:54.381Z,98179.06
2019-05-22T18:40:55.259Z,98181.72
2019-05-22T18:45:56.343Z,98188.45
2019-05-22T18:50:57.232Z,98197.64
2019-05-22T18:55:58.135Z,98204.60
2019-05-22T19:00:59.099Z,98208.02
2019-05-22T19:06:01.508Z,98206.62
2019-05-22T19:11:02.796Z,98217.73
2019-05-22T19:16:04.894Z,98220.91
2019-05-22T19:21:07.090Z,98230.78
2019-05-22T19:26:07.947Z,98226.38
2019-05-22T19:31:09.431Z,98229.83
2019-05-22T19:36:10.515Z,98234.09
2019-05-22T19:41:11.792Z,98242.03
2019-05-22T19:46:13.473Z,98238.80
2019-05-22T19:51:16.751Z,98246.64
2019-05-22T19:56:18.246Z,98238.70
2019-05-22T20:01:19.330Z,98244.88
2019-05-22T20:06:21.618Z,98238.92
2019-05-22T20:11:22.696Z,98239.27
2019-05-22T20:16:24.071Z,98247.21
2019-05-22T20:21:26.360Z,98247.41
2019-05-22T20:26:27.538Z,98241.46
